Time;durP1;ratioP1;P1;durP2;ratioP2;P2;SDS_P1;SDS_P2;PMS_P1;PMS_P2;Temp;Humidity;BMP_temperature;BMP_pressure;BME280_temperature;BME280_humidity;BME280_pressure;Samples;Min_cycle;Max_cycle;Signal;HPM_P1;HPM_P2
2023/04/06 00:02:01;;;;;;;;;;;3.50;70.40;;;;;;5103399;27;89764;-40
2023/04/06 00:04:27;;;;;;;;;;;3.50;70.40;;;;;;5105721;27;88677;-40
2023/04/06 00:06:52;;;;;;;;;;;3.60;70.30;;;;;;5103136;27;89820;-40
2023/04/06 00:09:18;;;;;;;;;;;3.60;70.30;;;;;;5103301;27;87180;-40
2023/04/06 00:11:43;;;;;;;;;;;3.50;70.20;;;;;;5103729;27;89048;-41
2023/04/06 00:14:09;;;;;;;;;;;3.50;70.10;;;;;;5102924;27;88170;-40
2023/04/06 00:16:34;;;;;;;;;;;3.50;70.20;;;;;;5103653;27;87176;-40
2023/04/06 00:19:00;;;;;;;;;;;3.50;70.30;;;;;;5103628;27;87893;-40
2023/04/06 00:21:26;;;;;;;;;;;3.50;70.30;;;;;;5103487;27;87845;-40
2023/04/06 00:23:51;;;;;;;;;;;3.50;70.20;;;;;;5103192;27;87116;-40
2023/04/06 00:26:17;;;;;;;;;;;3.50;70.20;;;;;;5105803;27;87485;-40
2023/04/06 00:28:42;;;;;;;;;;;3.50;70.20;;;;;;5102561;27;88040;-40
2023/04/06 00:31:08;;;;;;;;;;;3.50;70.20;;;;;;5103476;27;89958;-40
2023/04/06 00:33:33;;;;;;;;;;;3.50;70.10;;;;;;5103196;27;87640;-40
2023/04/06 00:35:59;;;;;;;;;;;3.50;70.10;;;;;;5103357;27;87337;-40
2023/04/06 00:38:24;;;;;;;;;;;3.50;70.10;;;;;;5103353;27;87284;-40
2023/04/06 00:40:50;;;;;;;;;;;3.50;70.10;;;;;;5102731;27;89545;-40
2023/04/06 00:43:15;;;;;;;;;;;3.50;70.10;;;;;;5103220;27;87258;-40
2023/04/06 00:45:41;;;;;;;;;;;3.50;70.10;;;;;;5106325;27;87160;-40
2023/04/06 00:48:07;;;;;;;;;;;3.50;70.00;;;;;;5103063;27;87051;-40
2023/04/06 00:50:33;;;;;;;;;;;3.40;70.10;;;;;;5102924;27;87562;-40
2023/04/06 00:52:59;;;;;;;;;;;3.40;70.20;;;;;;5101963;27;90563;-40
2023/04/06 00:55:25;;;;;;;;;;;3.40;70.20;;;;;;5102577;27;87506;-40
2023/04/06 00:57:51;;;;;;;;;;;3.40;70.20;;;;;;5102705;27;89266;-40
2023/04/06 01:00:17;;;;;;;;;;;3.40;70.10;;;;;;5102611;27;89321;-40
2023/04/06 01:02:44;;;;;;;;;;;3.40;69.90;;;;;;5102760;27;87615;-40
2023/04/06 01:05:10;;;;;;;;;;;3.40;70.00;;;;;;5102606;27;88622;-40
2023/04/06 01:07:35;;;;;;;;;;;3.40;70.00;;;;;;5105591;27;87940;-40
2023/04/06 01:10:02;;;;;;;;;;;3.40;69.90;;;;;;5102964;27;89170;-40
2023/04/06 01:12:28;;;;;;;;;;;3.40;70.00;;;;;;5102102;27;89482;-40
2023/04/06 01:14:54;;;;;;;;;;;3.40;70.00;;;;;;5102193;27;87104;-40
2023/04/06 01:17:19;;;;;;;;;;;3.40;70.00;;;;;;5102256;27;88800;-40
2023/04/06 01:19:45;;;;;;;;;;;3.40;70.00;;;;;;5102112;27;89442;-40
2023/04/06 01:22:15;;;;;;;;;;;3.40;70.10;;;;;;5102867;27;87511;-40
2023/04/06 01:24:40;;;;;;;;;;;3.40;70.00;;;;;;5102448;27;88692;-40
2023/04/06 01:27:06;;;;;;;;;;;3.30;70.10;;;;;;5102497;27;88042;-40
2023/04/06 01:29:31;;;;;;;;;;;3.40;70.10;;;;;;5105371;27;87516;-40
2023/04/06 01:31:57;;;;;;;;;;;3.30;70.20;;;;;;5102119;27;90062;-40
2023/04/06 01:34:22;;;;;;;;;;;3.30;70.20;;;;;;5102882;27;86782;-40
2023/04/06 01:36:48;;;;;;;;;;;3.30;70.10;;;;;;5102632;27;87080;-41
2023/04/06 01:39:13;;;;;;;;;;;3.30;70.10;;;;;;5104439;27;89647;-40
2023/04/06 01:41:39;;;;;;;;;;;3.30;70.10;;;;;;5105006;27;88107;-40
2023/04/06 01:44:05;;;;;;;;;;;3.30;70.10;;;;;;5105755;27;89937;-40
2023/04/06 01:46:31;;;;;;;;;;;3.30;70.00;;;;;;5101219;27;89538;-40
2023/04/06 01:48:56;;;;;;;;;;;3.30;70.20;;;;;;5105911;27;87136;-40
2023/04/06 01:51:22;;;;;;;;;;;3.30;70.20;;;;;;5108792;27;88154;-40
2023/04/06 01:53:49;;;;;;;;;;;3.30;70.20;;;;;;5105412;27;87559;-40
2023/04/06 01:56:14;;;;;;;;;;;3.30;70.10;;;;;;5105819;27;89127;-41
2023/04/06 01:58:40;;;;;;;;;;;3.30;70.20;;;;;;5106412;27;87192;-40
2023/04/06 02:01:05;;;;;;;;;;;3.30;70.20;;;;;;5106090;27;87406;-40
2023/04/06 02:03:31;;;;;;;;;;;3.30;70.20;;;;;;5105375;27;88949;-40
2023/04/06 02:05:56;;;;;;;;;;;3.30;70.10;;;;;;5104511;27;90928;-40
2023/04/06 02:08:22;;;;;;;;;;;3.30;70.10;;;;;;5105377;27;87183;-41
2023/04/06 02:10:47;;;;;;;;;;;3.30;70.20;;;;;;5105417;27;88937;-40
2023/04/06 02:13:13;;;;;;;;;;;3.30;70.20;;;;;;5107845;27;90241;-40
2023/04/06 02:15:38;;;;;;;;;;;3.20;70.20;;;;;;5105697;27;89012;-40
2023/04/06 02:18:04;;;;;;;;;;;3.20;70.20;;;;;;5105042;27;89226;-40
2023/04/06 02:20:30;;;;;;;;;;;3.20;70.50;;;;;;5097231;27;87065;-40
2023/04/06 02:22:57;;;;;;;;;;;3.20;70.30;;;;;;5106125;27;87515;-40
2023/04/06 02:25:22;;;;;;;;;;;3.20;70.20;;;;;;5104723;27;89630;-40
2023/04/06 02:27:48;;;;;;;;;;;3.20;70.30;;;;;;5105678;27;87563;-40
2023/04/06 02:30:13;;;;;;;;;;;3.20;70.30;;;;;;5104693;27;88917;-40
2023/04/06 02:32:39;;;;;;;;;;;3.20;70.30;;;;;;5104478;27;89332;-40
2023/04/06 02:35:04;;;;;;;;;;;3.20;70.40;;;;;;5108254;27;88084;-40
2023/04/06 02:37:30;;;;;;;;;;;3.20;70.30;;;;;;5104673;27;88993;-40
2023/04/06 02:39:55;;;;;;;;;;;3.20;70.20;;;;;;5104619;27;87144;-40
2023/04/06 02:42:21;;;;;;;;;;;3.20;70.10;;;;;;5104857;27;89081;-40
2023/04/06 02:44:46;;;;;;;;;;;3.20;70.20;;;;;;5104683;27;88920;-40
2023/04/06 02:47:12;;;;;;;;;;;3.20;70.30;;;;;;5101528;27;86351;-40
2023/04/06 02:49:37;;;;;;;;;;;3.10;70.30;;;;;;5104216;27;88542;-40
2023/04/06 02:52:03;;;;;;;;;;;3.20;70.90;;;;;;5100540;27;89700;-40
2023/04/06 02:54:29;;;;;;;;;;;3.20;70.30;;;;;;5107220;27;88055;-40
2023/04/06 02:56:54;;;;;;;;;;;3.20;70.30;;;;;;5104467;27;89679;-40
2023/04/06 02:59:20;;;;;;;;;;;3.10;70.30;;;;;;5105159;27;87106;-40
2023/04/06 03:01:45;;;;;;;;;;;3.10;70.30;;;;;;5104984;27;87473;-40
2023/04/06 03:04:11;;;;;;;;;;;3.10;70.50;;;;;;5104514;27;88802;-40
2023/04/06 03:06:36;;;;;;;;;;;3.10;70.40;;;;;;5104607;27;87115;-40
2023/04/06 03:09:02;;;;;;;;;;;3.10;70.30;;;;;;5104354;27;88719;-40
2023/04/06 03:11:27;;;;;;;;;;;3.10;70.30;;;;;;5104880;27;88652;-40
2023/04/06 03:13:53;;;;;;;;;;;3.10;70.40;;;;;;5104650;27;87215;-40
2023/04/06 03:16:18;;;;;;;;;;;3.10;70.30;;;;;;5107146;27;88023;-40
2023/04/06 03:18:47;;;;;;;;;;;3.10;70.40;;;;;;5102317;27;88094;-40
2023/04/06 03:21:15;;;;;;;;;;;3.10;70.30;;;;;;5104714;27;88845;-40
2023/04/06 03:23:41;;;;;;;;;;;3.10;70.20;;;;;;5104169;27;89340;-40
2023/04/06 03:26:07;;;;;;;;;;;3.10;70.30;;;;;;5104169;27;87007;-40
2023/04/06 03:28:33;;;;;;;;;;;3.10;70.30;;;;;;5104178;27;89034;-40
2023/04/06 03:30:58;;;;;;;;;;;3.10;70.30;;;;;;5103854;27;88071;-40
2023/04/06 03:33:26;;;;;;;;;;;3.10;70.30;;;;;;5104597;27;87088;-40
2023/04/06 03:35:52;;;;;;;;;;;3.10;70.30;;;;;;5105117;27;88965;-40
2023/04/06 03:38:18;;;;;;;;;;;3.10;70.20;;;;;;5106784;27;88659;-40
2023/04/06 03:40:43;;;;;;;;;;;3.10;70.10;;;;;;5104021;27;88806;-40
2023/04/06 03:43:09;;;;;;;;;;;3.10;70.20;;;;;;5102907;27;89605;-40
2023/04/06 03:45:34;;;;;;;;;;;3.00;70.30;;;;;;5099597;27;87658;-40
2023/04/06 03:48:00;;;;;;;;;;;3.10;70.30;;;;;;5104576;27;87249;-40
2023/04/06 03:50:25;;;;;;;;;;;3.00;70.30;;;;;;5103945;27;89778;-40
2023/04/06 03:52:51;;;;;;;;;;;3.00;70.50;;;;;;5104147;27;87163;-40
2023/04/06 03:55:16;;;;;;;;;;;3.00;70.30;;;;;;5103758;27;88808;-40
2023/04/06 03:57:42;;;;;;;;;;;3.00;70.40;;;;;;5104051;27;88046;-40
2023/04/06 04:00:08;;;;;;;;;;;3.00;70.40;;;;;;5106858;27;86335;-40
2023/04/06 04:02:33;;;;;;;;;;;3.00;70.40;;;;;;5103201;27;90789;-40
2023/04/06 04:04:59;;;;;;;;;;;3.00;70.50;;;;;;5104130;27;87207;-40
2023/04/06 04:07:25;;;;;;;;;;;3.00;70.40;;;;;;5103530;27;88366;-40
2023/04/06 04:09:50;;;;;;;;;;;3.00;70.50;;;;;;5103259;27;89923;-40
2023/04/06 04:12:16;;;;;;;;;;;3.00;70.40;;;;;;5103481;27;87529;-40
2023/04/06 04:14:42;;;;;;;;;;;3.00;70.40;;;;;;5102686;27;88738;-40
2023/04/06 04:17:07;;;;;;;;;;;3.00;70.50;;;;;;5103478;27;89654;-40
2023/04/06 04:19:33;;;;;;;;;;;2.90;70.40;;;;;;5104025;27;87052;-40
2023/04/06 04:21:58;;;;;;;;;;;2.90;70.60;;;;;;5106654;27;87922;-40
2023/04/06 04:24:23;;;;;;;;;;;2.90;70.60;;;;;;5104035;27;86390;-40
2023/04/06 04:26:49;;;;;;;;;;;2.90;70.40;;;;;;5103893;27;87466;-40
2023/04/06 04:29:15;;;;;;;;;;;3.00;70.40;;;;;;5103099;27;89629;-40
2023/04/06 04:31:40;;;;;;;;;;;3.00;70.40;;;;;;5102743;27;88119;-40
2023/04/06 04:34:06;;;;;;;;;;;2.90;70.40;;;;;;5103363;27;89598;-40
2023/04/06 04:36:32;;;;;;;;;;;2.90;70.40;;;;;;5099384;27;87990;-40
2023/04/06 04:38:57;;;;;;;;;;;2.90;70.40;;;;;;5103364;27;87719;-40
2023/04/06 04:41:23;;;;;;;;;;;2.90;70.60;;;;;;5103515;27;88568;-40
2023/04/06 04:43:49;;;;;;;;;;;2.90;70.60;;;;;;5106220;27;87527;-40
2023/04/06 04:46:14;;;;;;;;;;;2.90;70.60;;;;;;5103023;27;88707;-40
2023/04/06 04:48:40;;;;;;;;;;;2.90;70.50;;;;;;5103273;27;88737;-40
2023/04/06 04:51:05;;;;;;;;;;;2.90;70.50;;;;;;5103285;27;87197;-40
2023/04/06 04:53:31;;;;;;;;;;;2.90;70.50;;;;;;5098754;27;89185;-40
2023/04/06 04:55:56;;;;;;;;;;;2.90;70.50;;;;;;5102064;27;88840;-40
2023/04/06 04:58:22;;;;;;;;;;;2.90;70.50;;;;;;5102862;27;87105;-40
2023/04/06 05:00:47;;;;;;;;;;;2.80;70.60;;;;;;5103110;27;88785;-40
2023/04/06 05:03:17;;;;;;;;;;;2.80;70.50;;;;;;5105957;27;88033;-40
2023/04/06 05:05:42;;;;;;;;;;;2.90;70.40;;;;;;5103018;27;89252;-41
2023/04/06 05:08:08;;;;;;;;;;;2.90;70.40;;;;;;5102467;27;88050;-40
2023/04/06 05:10:34;;;;;;;;;;;2.90;70.40;;;;;;5103100;27;87594;-41
2023/04/06 05:13:00;;;;;;;;;;;2.80;70.40;;;;;;5102945;27;87463;-40
2023/04/06 05:15:25;;;;;;;;;;;2.80;70.60;;;;;;5102297;27;88558;-40
2023/04/06 05:17:51;;;;;;;;;;;2.80;70.70;;;;;;5102601;27;86996;-40
2023/04/06 05:20:16;;;;;;;;;;;2.80;70.60;;;;;;5102235;27;87907;-40
2023/04/06 05:22:42;;;;;;;;;;;2.80;70.70;;;;;;5102487;27;88047;-41
2023/04/06 05:25:08;;;;;;;;;;;2.80;70.70;;;;;;5104035;27;87360;-40
2023/04/06 05:27:33;;;;;;;;;;;2.80;70.60;;;;;;5102461;27;88051;-40
2023/04/06 05:29:59;;;;;;;;;;;2.80;70.70;;;;;;5102169;27;86922;-40
2023/04/06 05:32:25;;;;;;;;;;;2.80;70.70;;;;;;5102537;27;88814;-40
2023/04/06 05:34:50;;;;;;;;;;;2.80;70.70;;;;;;5102100;27;89542;-40
2023/04/06 05:37:16;;;;;;;;;;;2.80;70.70;;;;;;5102975;27;86322;-40
2023/04/06 05:39:41;;;;;;;;;;;2.80;70.80;;;;;;5102081;27;88409;-40
2023/04/06 05:42:07;;;;;;;;;;;2.80;70.70;;;;;;5101866;27;89937;-40
2023/04/06 05:44:32;;;;;;;;;;;2.80;70.90;;;;;;5101668;27;88024;-40
2023/04/06 05:46:58;;;;;;;;;;;2.70;70.80;;;;;;5104707;27;89674;-40
2023/04/06 05:49:23;;;;;;;;;;;2.70;70.90;;;;;;5102317;27;87209;-40
2023/04/06 05:51:49;;;;;;;;;;;2.70;71.00;;;;;;5102490;27;89081;-41
2023/04/06 05:54:14;;;;;;;;;;;2.70;71.50;;;;;;5102086;27;89785;-40
2023/04/06 05:56:40;;;;;;;;;;;2.70;70.90;;;;;;5101995;27;87107;-40
2023/04/06 05:59:05;;;;;;;;;;;2.70;71.00;;;;;;5102016;27;87430;-40
2023/04/06 06:01:31;;;;;;;;;;;2.70;70.80;;;;;;5102547;27;87706;-40
2023/04/06 06:03:56;;;;;;;;;;;2.70;70.80;;;;;;5101742;27;87120;-40
2023/04/06 06:06:22;;;;;;;;;;;2.80;70.80;;;;;;5102000;27;89251;-40
2023/04/06 06:08:48;;;;;;;;;;;2.70;70.80;;;;;;5103656;27;90769;-40
2023/04/06 06:11:13;;;;;;;;;;;2.70;70.90;;;;;;5101717;27;89914;-40
2023/04/06 06:13:39;;;;;;;;;;;2.70;70.90;;;;;;5101380;27;89193;-40
2023/04/06 06:16:05;;;;;;;;;;;2.70;70.80;;;;;;5101876;27;87020;-40
2023/04/06 06:18:30;;;;;;;;;;;2.70;70.70;;;;;;5101885;27;87777;-40
2023/04/06 06:20:56;;;;;;;;;;;2.70;70.70;;;;;;5097658;27;89447;-40
2023/04/06 06:23:21;;;;;;;;;;;2.80;70.70;;;;;;5101882;27;87092;-40
2023/04/06 06:25:47;;;;;;;;;;;2.70;70.60;;;;;;5101496;27;88765;-40
2023/04/06 06:28:13;;;;;;;;;;;2.70;70.70;;;;;;5105115;27;89690;-40
2023/04/06 06:30:38;;;;;;;;;;;2.70;70.70;;;;;;5108616;27;86996;-40
2023/04/06 06:33:04;;;;;;;;;;;2.70;70.80;;;;;;5103912;27;90530;-40
2023/04/06 06:35:30;;;;;;;;;;;2.60;70.90;;;;;;5105243;27;87110;-40
2023/04/06 06:37:55;;;;;;;;;;;2.70;71.00;;;;;;5105096;27;88836;-40
2023/04/06 06:40:23;;;;;;;;;;;2.70;70.90;;;;;;5100745;27;89616;-40
2023/04/06 06:42:49;;;;;;;;;;;2.70;70.90;;;;;;5105358;27;87054;-40
2023/04/06 06:45:15;;;;;;;;;;;2.70;70.90;;;;;;5105356;27;87670;-40
2023/04/06 06:47:41;;;;;;;;;;;2.70;70.90;;;;;;5104468;27;89577;-40
2023/04/06 06:50:06;;;;;;;;;;;2.60;71.10;;;;;;5105791;27;86402;-40
2023/04/06 06:52:32;;;;;;;;;;;2.70;71.10;;;;;;5107527;27;87999;-40
2023/04/06 06:54:57;;;;;;;;;;;2.60;71.20;;;;;;5105162;27;87158;-40
2023/04/06 06:57:23;;;;;;;;;;;2.60;71.20;;;;;;5104012;27;88633;-40
2023/04/06 06:59:48;;;;;;;;;;;2.60;71.10;;;;;;5104519;27;88197;-40
2023/04/06 07:02:14;;;;;;;;;;;2.70;71.10;;;;;;5104822;27;87049;-40
2023/04/06 07:04:39;;;;;;;;;;;2.70;71.10;;;;;;5104233;27;88205;-40
2023/04/06 07:07:05;;;;;;;;;;;2.60;71.20;;;;;;5104533;27;89606;-40
2023/04/06 07:09:30;;;;;;;;;;;2.60;71.20;;;;;;5100108;27;87196;-40
2023/04/06 07:11:56;;;;;;;;;;;2.60;71.30;;;;;;5107146;27;89047;-40
2023/04/06 07:14:22;;;;;;;;;;;2.60;71.20;;;;;;5104588;27;86650;-40
2023/04/06 07:16:49;;;;;;;;;;;2.60;71.30;;;;;;5103956;27;87616;-40
2023/04/06 07:19:15;;;;;;;;;;;2.60;71.30;;;;;;5102826;27;90893;-40
2023/04/06 07:21:41;;;;;;;;;;;2.60;71.40;;;;;;5102865;27;88484;-40
2023/04/06 07:24:06;;;;;;;;;;;2.60;71.40;;;;;;5100576;27;89020;-40
2023/04/06 07:26:32;;;;;;;;;;;2.60;71.30;;;;;;5104523;27;89375;-40
2023/04/06 07:28:57;;;;;;;;;;;2.60;71.40;;;;;;5104610;27;87037;-40
2023/04/06 07:31:23;;;;;;;;;;;2.60;71.30;;;;;;5104458;27;88836;-41
2023/04/06 07:33:49;;;;;;;;;;;2.60;71.40;;;;;;5107228;27;89167;-40
2023/04/06 07:36:15;;;;;;;;;;;2.60;71.50;;;;;;5104240;27;89251;-41
2023/04/06 07:38:40;;;;;;;;;;;2.60;71.50;;;;;;5104672;27;87485;-40
2023/04/06 07:41:06;;;;;;;;;;;2.60;71.50;;;;;;5104128;27;87179;-40
2023/04/06 07:43:31;;;;;;;;;;;2.60;71.30;;;;;;5104808;27;88898;-40
2023/04/06 07:45:57;;;;;;;;;;;2.60;71.30;;;;;;5103100;27;90648;-40
2023/04/06 07:48:23;;;;;;;;;;;2.60;71.50;;;;;;5104392;27;87119;-40
2023/04/06 07:50:48;;;;;;;;;;;2.60;71.30;;;;;;5104461;27;87340;-40
2023/04/06 07:53:14;;;;;;;;;;;2.60;71.30;;;;;;5104088;27;88951;-40
2023/04/06 07:55:39;;;;;;;;;;;2.60;71.30;;;;;;5107024;27;87151;-40
2023/04/06 07:58:05;;;;;;;;;;;2.60;71.40;;;;;;5104106;27;88206;-40
2023/04/06 08:00:30;;;;;;;;;;;2.60;71.50;;;;;;5104657;27;87144;-40
2023/04/06 08:02:56;;;;;;;;;;;2.60;71.50;;;;;;5104700;27;87360;-40
2023/04/06 08:05:21;;;;;;;;;;;2.60;71.60;;;;;;5103419;27;90102;-41
2023/04/06 08:07:47;;;;;;;;;;;2.60;71.60;;;;;;5103683;27;86970;-40
2023/04/06 08:10:12;;;;;;;;;;;2.60;71.60;;;;;;5102532;27;89105;-40
2023/04/06 08:12:38;;;;;;;;;;;2.60;71.60;;;;;;5103388;27;89361;-41
2023/04/06 08:15:04;;;;;;;;;;;2.60;71.50;;;;;;5103525;27;87168;-40
2023/04/06 08:17:31;;;;;;;;;;;2.60;71.40;;;;;;5106672;27;88869;-40
2023/04/06 08:19:57;;;;;;;;;;;2.60;71.40;;;;;;5103761;27;87170;-40
2023/04/06 08:22:22;;;;;;;;;;;2.60;71.50;;;;;;5103721;27;88951;-40
2023/04/06 08:24:48;;;;;;;;;;;2.60;71.50;;;;;;5103190;27;89238;-40
2023/04/06 08:27:14;;;;;;;;;;;2.60;71.60;;;;;;5104100;27;86407;-41
2023/04/06 08:29:40;;;;;;;;;;;2.60;71.50;;;;;;5099412;27;88047;-40
2023/04/06 08:32:06;;;;;;;;;;;2.60;71.60;;;;;;5103315;27;88161;-40
2023/04/06 08:34:34;;;;;;;;;;;2.60;71.80;;;;;;5102683;27;87978;-40
2023/04/06 08:37:00;;;;;;;;;;;2.60;71.60;;;;;;5101944;27;89843;-40
2023/04/06 08:39:27;;;;;;;;;;;2.60;71.60;;;;;;5105856;27;89383;-40
2023/04/06 08:41:56;;;;;;;;;;;2.60;71.70;;;;;;5103813;27;89099;-40
2023/04/06 08:44:22;;;;;;;;;;;2.60;71.60;;;;;;5103414;27;89492;-40
2023/04/06 08:46:48;;;;;;;;;;;2.60;71.70;;;;;;5102885;27;87602;-40
2023/04/06 08:49:14;;;;;;;;;;;2.60;71.80;;;;;;5103797;27;87071;-40
2023/04/06 08:51:40;;;;;;;;;;;2.60;71.70;;;;;;5099715;27;88685;-40
2023/04/06 08:54:05;;;;;;;;;;;2.60;71.60;;;;;;5103323;27;87067;-40
2023/04/06 08:56:31;;;;;;;;;;;2.60;71.60;;;;;;5103691;27;87136;-40
2023/04/06 08:58:57;;;;;;;;;;;2.60;71.60;;;;;;5102350;27;88843;-40
2023/04/06 09:01:25;;;;;;;;;;;2.60;71.60;;;;;;5106078;27;87098;-40
2023/04/06 09:03:51;;;;;;;;;;;2.60;71.60;;;;;;5102419;27;88318;-40
2023/04/06 09:06:16;;;;;;;;;;;2.60;71.70;;;;;;5103191;27;87066;-40
2023/04/06 09:08:42;;;;;;;;;;;2.60;71.70;;;;;;5102833;27;88956;-41
2023/04/06 09:11:08;;;;;;;;;;;2.60;71.60;;;;;;5102682;27;87062;-41
2023/04/06 09:13:52;;;;;;;;;;;2.60;71.60;;;;;;5102245;27;87147;-40
2023/04/06 09:16:18;;;;;;;;;;;2.60;71.70;;;;;;5100609;27;87935;-40
2023/04/06 09:18:43;;;;;;;;;;;2.60;71.70;;;;;;5102746;27;87959;-40
2023/04/06 09:21:09;;;;;;;;;;;2.70;71.80;;;;;;5105216;27;87076;-40
2023/04/06 09:23:35;;;;;;;;;;;2.70;71.70;;;;;;5101764;27;88873;-40
2023/04/06 09:26:12;;;;;;;;;;;2.70;71.60;;;;;;5102763;27;87214;-40
2023/04/06 09:28:41;;;;;;;;;;;2.60;71.80;;;;;;5102832;27;88824;-40
2023/04/06 09:31:06;;;;;;;;;;;2.60;71.70;;;;;;5102627;27;88245;-41
2023/04/06 09:33:32;;;;;;;;;;;2.60;71.80;;;;;;5102276;27;87178;-40
2023/04/06 09:35:57;;;;;;;;;;;2.60;71.80;;;;;;5102370;27;87381;-41
2023/04/06 09:38:23;;;;;;;;;;;2.70;71.70;;;;;;5101829;27;89177;-40
2023/04/06 09:40:51;;;;;;;;;;;2.70;71.70;;;;;;5103158;27;86351;-40
2023/04/06 09:43:24;;;;;;;;;;;2.70;71.70;;;;;;5105025;27;87388;-40
2023/04/06 09:45:50;;;;;;;;;;;2.70;71.60;;;;;;5098838;27;87141;-40
2023/04/06 09:48:15;;;;;;;;;;;2.70;71.80;;;;;;5101923;27;88565;-40
2023/04/06 09:50:41;;;;;;;;;;;2.60;71.80;;;;;;5102048;27;88038;-40
2023/04/06 09:53:07;;;;;;;;;;;2.60;71.70;;;;;;5102520;27;87156;-41
2023/04/06 09:55:36;;;;;;;;;;;2.70;71.70;;;;;;5102092;27;87802;-41
2023/04/06 09:58:06;;;;;;;;;;;2.70;71.80;;;;;;5096783;27;90218;-41
2023/04/06 10:00:32;;;;;;;;;;;2.70;71.80;;;;;;5105478;27;87054;-41
2023/04/06 10:03:02;;;;;;;;;;;2.70;71.80;;;;;;5106069;27;87092;-40
2023/04/06 10:05:37;;;;;;;;;;;2.70;72.00;;;;;;5108653;27;87249;-41
2023/04/06 10:08:08;;;;;;;;;;;2.70;71.90;;;;;;5103523;27;88112;-41
2023/04/06 10:10:34;;;;;;;;;;;2.70;72.00;;;;;;5104950;27;89363;-41
2023/04/06 10:12:59;;;;;;;;;;;2.70;72.00;;;;;;5105137;27;88555;-41
2023/04/06 10:15:25;;;;;;;;;;;2.70;72.20;;;;;;5105022;27;88238;-41
2023/04/06 10:17:51;;;;;;;;;;;2.60;72.20;;;;;;5105422;27;87974;-41
2023/04/06 10:20:22;;;;;;;;;;;2.70;72.10;;;;;;5105731;27;87130;-41
2023/04/06 10:22:56;;;;;;;;;;;2.70;72.20;;;;;;5105884;27;87080;-41
2023/04/06 10:25:32;;;;;;;;;;;2.70;72.20;;;;;;5101348;27;89422;-41
2023/04/06 10:28:07;;;;;;;;;;;2.70;72.20;;;;;;5108633;27;87199;-41
2023/04/06 10:30:41;;;;;;;;;;;2.70;72.20;;;;;;5102439;27;87419;-40
2023/04/06 10:33:14;;;;;;;;;;;2.70;72.20;;;;;;5105626;27;86950;-40
2023/04/06 10:35:40;;;;;;;;;;;2.70;72.20;;;;;;5105044;27;87732;-41
2023/04/06 10:38:05;;;;;;;;;;;2.70;72.20;;;;;;5104575;27;90612;-41
2023/04/06 10:40:33;;;;;;;;;;;2.70;72.30;;;;;;5105582;27;87037;-40
2023/04/06 10:43:12;;;;;;;;;;;2.70;72.20;;;;;;5104963;27;88929;-41
2023/04/06 10:45:38;;;;;;;;;;;2.70;72.20;;;;;;5101654;27;88025;-41
2023/04/06 10:48:16;;;;;;;;;;;2.70;72.30;;;;;;5104665;27;87116;-40
2023/04/06 10:50:46;;;;;;;;;;;2.70;72.40;;;;;;5107955;27;87906;-41
2023/04/06 10:53:20;;;;;;;;;;;2.70;72.50;;;;;;5104719;27;87526;-41
2023/04/06 10:55:46;;;;;;;;;;;2.70;72.50;;;;;;5105815;27;89156;-41
2023/04/06 10:58:12;;;;;;;;;;;2.70;72.60;;;;;;5105190;27;88172;-41
2023/04/06 11:00:43;;;;;;;;;;;2.70;72.70;;;;;;5105316;27;87214;-41
2023/04/06 11:03:08;;;;;;;;;;;2.70;72.70;;;;;;5104030;27;87939;-41
2023/04/06 11:05:35;;;;;;;;;;;2.70;72.90;;;;;;5104388;27;89641;-41
2023/04/06 11:08:00;;;;;;;;;;;2.70;72.90;;;;;;5104774;27;87280;-40
2023/04/06 11:10:26;;;;;;;;;;;2.70;72.90;;;;;;5107016;27;87498;-40
2023/04/06 11:12:53;;;;;;;;;;;2.70;72.90;;;;;;5104521;27;87020;-41
2023/04/06 11:15:18;;;;;;;;;;;2.70;72.90;;;;;;5104230;27;88734;-40
2023/04/06 11:17:45;;;;;;;;;;;2.70;72.90;;;;;;5104036;27;89560;-41
2023/04/06 11:20:11;;;;;;;;;;;2.70;72.90;;;;;;5104980;27;86264;-41
2023/04/06 11:22:47;;;;;;;;;;;2.70;73.00;;;;;;5104279;27;87527;-40
2023/04/06 11:25:13;;;;;;;;;;;2.70;73.10;;;;;;5100898;27;89545;-40
2023/04/06 11:27:39;;;;;;;;;;;2.70;73.10;;;;;;5104012;27;88428;-41
2023/04/06 11:30:06;;;;;;;;;;;2.70;73.00;;;;;;5104830;27;88257;-40
2023/04/06 11:32:39;;;;;;;;;;;2.70;72.90;;;;;;5106591;27;90145;-40
2023/04/06 11:35:05;;;;;;;;;;;2.70;72.90;;;;;;5100813;27;89020;-40
2023/04/06 11:37:32;;;;;;;;;;;2.70;72.90;;;;;;5103748;27;88273;-40
2023/04/06 11:39:58;;;;;;;;;;;2.70;72.90;;;;;;5104507;27;87130;-40
2023/04/06 11:42:24;;;;;;;;;;;2.70;72.80;;;;;;5104489;27;88848;-40
2023/04/06 11:44:54;;;;;;;;;;;2.70;73.10;;;;;;5104630;27;86455;-40
2023/04/06 11:47:20;;;;;;;;;;;2.70;73.10;;;;;;5103976;27;87579;-41
2023/04/06 11:49:45;;;;;;;;;;;2.70;73.20;;;;;;5104444;27;88885;-40
2023/04/06 11:52:18;;;;;;;;;;;2.70;73.30;;;;;;5103590;27;88827;-40
2023/04/06 11:54:44;;;;;;;;;;;2.70;73.20;;;;;;5106989;27;86995;-40
2023/04/06 11:57:09;;;;;;;;;;;2.80;73.20;;;;;;5103824;27;89220;-40
2023/04/06 11:59:35;;;;;;;;;;;2.70;73.20;;;;;;5104613;27;87135;-40
2023/04/06 12:02:01;;;;;;;;;;;2.80;73.20;;;;;;5104025;27;88453;-40
2023/04/06 12:04:26;;;;;;;;;;;2.80;73.20;;;;;;5103380;27;89543;-40
2023/04/06 12:06:52;;;;;;;;;;;2.80;73.10;;;;;;5104065;27;87113;-40
2023/04/06 12:09:17;;;;;;;;;;;2.80;73.20;;;;;;5104186;27;88905;-40
2023/04/06 12:11:43;;;;;;;;;;;2.80;73.20;;;;;;5103135;27;89209;-40
2023/04/06 12:14:09;;;;;;;;;;;2.80;73.30;;;;;;5103326;27;87089;-40
2023/04/06 12:16:35;;;;;;;;;;;2.80;73.50;;;;;;5105415;27;89471;-40
2023/04/06 12:19:01;;;;;;;;;;;2.80;73.50;;;;;;5103579;27;86941;-40
2023/04/06 12:21:27;;;;;;;;;;;2.80;73.50;;;;;;5102629;27;88835;-40
2023/04/06 12:23:52;;;;;;;;;;;2.80;73.60;;;;;;5103222;27;88551;-40
2023/04/06 12:26:18;;;;;;;;;;;2.80;73.50;;;;;;5103699;27;87104;-40
2023/04/06 12:28:44;;;;;;;;;;;2.80;73.60;;;;;;5103735;27;87527;-41
2023/04/06 12:31:20;;;;;;;;;;;2.80;73.60;;;;;;5102827;27;89391;-40
2023/04/06 12:33:49;;;;;;;;;;;2.80;73.60;;;;;;5103610;27;86731;-40
2023/04/06 12:36:18;;;;;;;;;;;2.80;73.70;;;;;;5103565;27;86974;-40
2023/04/06 12:38:45;;;;;;;;;;;2.80;73.70;;;;;;5105511;27;89866;-40
2023/04/06 12:41:11;;;;;;;;;;;2.80;73.70;;;;;;5102517;27;89028;-40
2023/04/06 12:43:36;;;;;;;;;;;2.80;73.70;;;;;;5102382;27;88756;-40
2023/04/06 12:46:02;;;;;;;;;;;2.80;73.70;;;;;;5103039;27;87216;-41
2023/04/06 12:48:27;;;;;;;;;;;2.80;73.70;;;;;;5102687;27;88433;-40
2023/04/06 12:50:57;;;;;;;;;;;2.80;73.70;;;;;;5102951;27;90008;-40
2023/04/06 12:53:22;;;;;;;;;;;2.90;73.80;;;;;;5102486;27;87082;-40
2023/04/06 12:55:48;;;;;;;;;;;2.90;73.90;;;;;;5103236;27;88835;-41
2023/04/06 12:58:14;;;;;;;;;;;2.90;74.40;;;;;;5103374;27;88543;-40
2023/04/06 13:00:40;;;;;;;;;;;2.80;73.80;;;;;;5101839;27;87138;-41
2023/04/06 13:03:05;;;;;;;;;;;2.90;73.70;;;;;;5102312;27;88364;-40
2023/04/06 13:05:31;;;;;;;;;;;2.90;73.80;;;;;;5102226;27;87938;-41
2023/04/06 13:07:57;;;;;;;;;;;2.90;73.70;;;;;;5102881;27;88379;-41
2023/04/06 13:10:22;;;;;;;;;;;2.90;73.80;;;;;;5102041;27;89319;-41
2023/04/06 13:12:48;;;;;;;;;;;2.90;73.80;;;;;;5102114;27;87380;-40
2023/04/06 13:15:14;;;;;;;;;;;2.90;73.60;;;;;;5101975;27;88876;-41
2023/04/06 13:17:40;;;;;;;;;;;2.90;73.70;;;;;;5102229;27;88571;-41
2023/04/06 13:20:06;;;;;;;;;;;2.90;73.70;;;;;;5105086;27;87165;-40
2023/04/06 13:22:31;;;;;;;;;;;2.90;73.60;;;;;;5102604;27;88421;-40
2023/04/06 13:24:57;;;;;;;;;;;2.90;73.80;;;;;;5102367;27;87128;-40
2023/04/06 13:27:22;;;;;;;;;;;2.90;73.50;;;;;;5102668;27;89088;-40
2023/04/06 13:29:48;;;;;;;;;;;2.90;73.60;;;;;;5101344;27;90542;-40
2023/04/06 13:32:13;;;;;;;;;;;2.90;73.80;;;;;;5102388;27;87893;-40
2023/04/06 13:34:40;;;;;;;;;;;2.90;73.70;;;;;;5106000;27;87433;-40
2023/04/06 13:37:05;;;;;;;;;;;2.90;73.80;;;;;;5106118;27;89512;-40
2023/04/06 13:39:31;;;;;;;;;;;2.90;73.80;;;;;;5106099;27;87125;-41
2023/04/06 13:41:57;;;;;;;;;;;2.90;73.90;;;;;;5108645;27;88885;-40
2023/04/06 13:44:22;;;;;;;;;;;3.00;73.80;;;;;;5106226;27;87200;-40
2023/04/06 13:46:48;;;;;;;;;;;2.90;73.80;;;;;;5105976;27;86536;-40
2023/04/06 13:49:13;;;;;;;;;;;3.00;73.80;;;;;;5105370;27;89873;-41
2023/04/06 13:51:39;;;;;;;;;;;2.90;73.80;;;;;;5105610;27;87110;-40
2023/04/06 13:54:04;;;;;;;;;;;3.00;73.80;;;;;;5105458;27;88401;-41
2023/04/06 13:56:30;;;;;;;;;;;2.90;73.80;;;;;;5105500;27;89410;-40
2023/04/06 13:58:56;;;;;;;;;;;3.00;73.80;;;;;;5105792;27;87258;-40
2023/04/06 14:01:22;;;;;;;;;;;2.90;73.80;;;;;;5105818;27;87285;-40
2023/04/06 14:03:50;;;;;;;;;;;3.00;73.90;;;;;;5108488;27;89280;-40
2023/04/06 14:06:16;;;;;;;;;;;3.00;73.90;;;;;;5105496;27;88068;-41
2023/04/06 14:08:41;;;;;;;;;;;3.00;73.80;;;;;;5105615;27;88191;-40
2023/04/06 14:11:11;;;;;;;;;;;3.00;73.80;;;;;;5106325;27;86584;-40
2023/04/06 14:13:37;;;;;;;;;;;3.00;73.90;;;;;;5101029;27;88167;-41
2023/04/06 14:16:03;;;;;;;;;;;3.00;73.80;;;;;;5104983;27;89324;-40
2023/04/06 14:18:30;;;;;;;;;;;3.00;73.70;;;;;;5104790;27;88085;-41
2023/04/06 14:21:00;;;;;;;;;;;3.00;73.70;;;;;;5105401;27;89936;-40
2023/04/06 14:23:26;;;;;;;;;;;3.00;73.80;;;;;;5104972;27;89375;-40
2023/04/06 14:26:02;;;;;;;;;;;3.00;73.80;;;;;;5104354;27;87079;-40